Time;durP1;ratioP1;P1;durP2;ratioP2;P2;SDS_P1;SDS_P2;PMS_P1;PMS_P2;Temp;Humidity;BMP_temperature;BMP_pressure;BME280_temperature;BME280_humidity;BME280_pressure;Samples;Min_cycle;Max_cycle;Signal;HPM_P1;HPM_P2
2023/12/06 00:00:22;;;;;;;75.35;33.47;;;-4.50;99.90;;;;;;5076025;28;20024;-74
2023/12/06 00:02:49;;;;;;;68.72;34.75;;;-4.50;99.90;;;;;;5074700;28;20504;-74
2023/12/06 00:05:15;;;;;;;88.82;35.10;;;-4.40;99.90;;;;;;5075683;28;20465;-74
2023/12/06 00:07:41;;;;;;;83.00;37.35;;;-4.40;99.90;;;;;;5075828;28;20083;-74
2023/12/06 00:10:07;;;;;;;98.85;41.22;;;-4.40;99.90;;;;;;5074561;28;20048;-75
2023/12/06 00:12:33;;;;;;;105.80;44.17;;;-4.30;99.90;;;;;;5074478;28;20082;-74
2023/12/06 00:14:59;;;;;;;139.32;59.40;;;-4.30;99.90;;;;;;5074225;28;20564;-74
2023/12/06 00:17:24;;;;;;;116.05;49.38;;;-4.40;99.90;;;;;;5074377;28;20093;-78
2023/12/06 00:19:50;;;;;;;116.97;52.42;;;-4.50;99.90;;;;;;5075425;28;20355;-78
2023/12/06 00:22:15;;;;;;;144.00;58.95;;;-4.50;99.90;;;;;;5075571;28;20028;-75
2023/12/06 00:24:41;;;;;;;147.63;66.43;;;-4.60;99.90;;;;;;5074225;28;20027;-74
2023/12/06 00:27:07;;;;;;;157.57;66.55;;;-4.50;99.90;;;;;;5074116;28;20041;-78
2023/12/06 00:29:33;;;;;;;159.60;63.10;;;-4.50;99.90;;;;;;5075195;28;20025;-74
2023/12/06 00:31:58;;;;;;;136.95;59.03;;;-4.50;99.90;;;;;;5075366;28;20060;-75
2023/12/06 00:34:24;;;;;;;136.63;55.08;;;-4.50;99.90;;;;;;5073845;28;20036;-74
2023/12/06 00:36:49;;;;;;;126.80;55.03;;;-4.50;99.90;;;;;;5074214;28;20020;-78
2023/12/06 00:39:15;;;;;;;147.45;60.45;;;-4.50;99.90;;;;;;5074934;28;20029;-78
2023/12/06 00:41:41;;;;;;;134.93;60.35;;;-4.50;99.90;;;;;;5075310;28;20120;-79
2023/12/06 00:44:07;;;;;;;154.27;65.85;;;-4.50;99.90;;;;;;5075285;28;20025;-75
2023/12/06 00:46:33;;;;;;;133.18;57.10;;;-4.50;99.90;;;;;;5073751;28;20563;-75
2023/12/06 00:49:00;;;;;;;141.60;57.65;;;-4.50;99.90;;;;;;5073897;28;20367;-78
2023/12/06 00:51:26;;;;;;;154.98;64.57;;;-4.40;99.90;;;;;;5074930;28;20103;-78
2023/12/06 00:53:52;;;;;;;117.93;48.10;;;-4.40;99.90;;;;;;5075027;28;20020;-78
2023/12/06 00:56:18;;;;;;;114.97;46.05;;;-4.30;99.90;;;;;;5074959;28;20028;-78
2023/12/06 00:58:44;;;;;;;108.47;47.58;;;-4.20;99.90;;;;;;5075036;28;20479;-78
2023/12/06 01:01:11;;;;;;;103.03;45.28;;;-4.20;99.90;;;;;;5073592;28;20024;-78
2023/12/06 01:03:38;;;;;;;106.78;47.60;;;-4.20;99.90;;;;;;5053525;28;20031;-78
2023/12/06 01:06:04;;;;;;;96.00;40.78;;;-4.10;99.90;;;;;;5066715;28;20020;-78
2023/12/06 01:08:29;;;;;;;92.30;39.25;;;-4.10;99.90;;;;;;5073428;28;20075;-78
2023/12/06 01:10:55;;;;;;;85.40;37.30;;;-4.10;99.90;;;;;;5074603;28;20524;-74
2023/12/06 01:13:21;;;;;;;86.82;42.20;;;-4.00;99.90;;;;;;5073218;28;20035;-75
2023/12/06 01:15:47;;;;;;;105.25;43.63;;;-4.00;99.90;;;;;;5072625;28;20377;-78
2023/12/06 01:18:13;;;;;;;124.47;51.78;;;-4.00;99.90;;;;;;5069683;28;20025;-78
2023/12/06 01:20:39;;;;;;;109.97;48.17;;;-4.00;99.90;;;;;;5074164;28;20024;-74
2023/12/06 01:23:05;;;;;;;95.00;42.45;;;-3.90;99.90;;;;;;5074165;28;20031;-74
2023/12/06 01:25:33;;;;;;;90.53;41.92;;;-3.90;99.90;;;;;;5072834;28;20021;-78
2023/12/06 01:27:59;;;;;;;93.05;43.80;;;-3.90;99.90;;;;;;5074215;28;20036;-78
2023/12/06 01:30:24;;;;;;;99.88;45.30;;;-3.80;99.90;;;;;;5073022;28;20028;-74
2023/12/06 01:32:50;;;;;;;105.72;46.95;;;-3.80;99.90;;;;;;5072814;28;20113;-78
2023/12/06 01:35:16;;;;;;;102.90;44.88;;;-3.80;99.90;;;;;;5074125;28;20023;-75
2023/12/06 01:37:41;;;;;;;93.68;41.35;;;-3.80;99.90;;;;;;5072816;28;20117;-74
2023/12/06 01:40:08;;;;;;;80.60;38.17;;;-3.70;99.90;;;;;;5074240;28;20371;-78
2023/12/06 01:42:37;;;;;;;66.57;31.52;;;-3.70;99.90;;;;;;5072568;28;20103;-79
2023/12/06 01:45:03;;;;;;;92.18;37.42;;;-3.70;99.90;;;;;;5074092;28;20027;-75
2023/12/06 01:47:30;;;;;;;73.32;32.72;;;-3.60;99.90;;;;;;5073745;28;20032;-78
2023/12/06 01:50:01;;;;;;;76.65;38.63;;;-3.60;99.90;;;;;;5074095;28;20021;-74
2023/12/06 01:52:27;;;;;;;99.63;42.42;;;-3.50;99.90;;;;;;5072715;28;20029;-79
2023/12/06 01:54:57;;;;;;;83.13;39.05;;;-3.50;99.90;;;;;;5072543;28;20050;-79
2023/12/06 01:57:32;;;;;;;80.18;35.65;;;-3.50;99.90;;;;;;5073107;28;20024;-74
2023/12/06 01:59:58;;;;;;;82.75;37.47;;;-3.50;99.90;;;;;;5060714;28;20470;-78
2023/12/06 02:02:25;;;;;;;77.85;33.38;;;-3.50;99.90;;;;;;5072283;28;20059;-74
2023/12/06 02:04:51;;;;;;;64.68;29.88;;;-3.50;99.90;;;;;;5072375;28;20047;-74
2023/12/06 02:07:17;;;;;;;60.33;29.05;;;-3.40;99.90;;;;;;5073404;28;20036;-75
2023/12/06 02:09:44;;;;;;;59.75;28.23;;;-3.40;99.90;;;;;;5072568;28;20111;-78
2023/12/06 02:12:10;;;;;;;62.15;29.05;;;-3.40;99.90;;;;;;5073323;28;20089;-75
2023/12/06 02:14:35;;;;;;;59.83;27.58;;;-3.30;99.90;;;;;;5073456;28;20078;-78
2023/12/06 02:17:03;;;;;;;68.00;29.95;;;-3.30;99.90;;;;;;5073431;28;20135;-74
2023/12/06 02:19:29;;;;;;;68.05;28.35;;;-3.30;99.90;;;;;;5072083;28;20121;-78
2023/12/06 02:21:56;;;;;;;60.88;29.67;;;-3.30;99.90;;;;;;5073097;28;20029;-74
2023/12/06 02:24:25;;;;;;;66.00;29.27;;;-3.30;99.90;;;;;;5073117;28;20020;-78
2023/12/06 02:26:54;;;;;;;60.58;27.77;;;-3.20;99.90;;;;;;5072882;28;20041;-74
2023/12/06 02:29:19;;;;;;;61.10;28.67;;;-3.20;99.90;;;;;;5072021;28;20541;-78
2023/12/06 02:31:45;;;;;;;54.85;27.45;;;-3.20;99.90;;;;;;5072795;28;20056;-75
2023/12/06 02:34:16;;;;;;;59.85;26.90;;;-3.10;99.90;;;;;;5073171;28;20021;-78
2023/12/06 02:36:45;;;;;;;55.53;27.27;;;-3.20;99.90;;;;;;5071704;28;20021;-74
2023/12/06 02:39:11;;;;;;;63.20;29.77;;;-3.10;99.90;;;;;;5073155;28;20024;-78
2023/12/06 02:41:37;;;;;;;69.70;33.10;;;-3.10;99.90;;;;;;5071473;28;20028;-78
2023/12/06 02:44:02;;;;;;;69.30;32.35;;;-3.10;99.90;;;;;;5073213;28;20041;-78
2023/12/06 02:46:28;;;;;;;70.00;32.20;;;-3.10;99.90;;;;;;5071331;28;20067;-75
2023/12/06 02:48:56;;;;;;;61.42;29.45;;;-3.10;99.90;;;;;;5073025;28;20493;-74
2023/12/06 02:51:23;;;;;;;62.67;30.38;;;-3.10;99.90;;;;;;5072861;28;20016;-78
2023/12/06 02:53:49;;;;;;;70.53;32.33;;;-3.10;99.90;;;;;;5073102;28;20017;-78
2023/12/06 02:56:15;;;;;;;74.75;34.50;;;-3.10;99.90;;;;;;5071381;28;20017;-78
2023/12/06 02:58:40;;;;;;;86.32;39.88;;;-3.10;99.90;;;;;;5071727;28;20607;-78
2023/12/06 03:01:06;;;;;;;78.28;38.60;;;-3.10;99.90;;;;;;5072671;28;20031;-74
2023/12/06 03:03:32;;;;;;;77.50;35.13;;;-3.10;99.90;;;;;;5072783;28;20109;-75
2023/12/06 03:05:57;;;;;;;92.28;40.15;;;-3.10;99.90;;;;;;5072690;28;20021;-78
2023/12/06 03:08:23;;;;;;;90.85;41.15;;;-3.20;99.90;;;;;;5072649;28;20025;-78
2023/12/06 03:10:49;;;;;;;101.53;43.40;;;-3.20;99.90;;;;;;5071293;28;20028;-74
2023/12/06 03:13:14;;;;;;;103.22;46.25;;;-3.20;99.90;;;;;;5071611;28;20024;-74
2023/12/06 03:15:40;;;;;;;88.85;38.80;;;-3.20;99.90;;;;;;5072516;28;20016;-74
2023/12/06 03:18:06;;;;;;;85.43;38.53;;;-3.20;99.90;;;;;;5071428;28;20012;-74
2023/12/06 03:20:31;;;;;;;79.75;38.70;;;-3.20;99.90;;;;;;5071076;28;20424;-78
2023/12/06 03:22:57;;;;;;;94.60;38.75;;;-3.30;99.90;;;;;;5071250;28;20079;-79
2023/12/06 03:25:22;;;;;;;88.85;40.72;;;-3.30;99.90;;;;;;5070787;28;20029;-74
2023/12/06 03:27:48;;;;;;;97.32;39.85;;;-3.30;99.90;;;;;;5072509;28;20498;-78
2023/12/06 03:30:14;;;;;;;92.55;40.55;;;-3.20;99.90;;;;;;5072324;28;20031;-78
2023/12/06 03:32:39;;;;;;;88.43;39.70;;;-3.20;99.90;;;;;;5072263;28;20494;-74
2023/12/06 03:35:06;;;;;;;82.22;36.80;;;-3.20;99.90;;;;;;5071041;28;20020;-78
2023/12/06 03:37:31;;;;;;;73.43;33.42;;;-3.20;99.90;;;;;;5072319;28;20028;-75
2023/12/06 03:39:57;;;;;;;79.10;33.30;;;-3.20;99.90;;;;;;5072306;28;20028;-78
2023/12/06 03:42:23;;;;;;;71.13;34.13;;;-3.20;99.90;;;;;;5072450;28;20021;-79
2023/12/06 03:44:49;;;;;;;78.85;35.25;;;-3.20;99.90;;;;;;5070968;28;20027;-78
2023/12/06 03:47:14;;;;;;;73.55;35.55;;;-3.20;99.90;;;;;;5070862;28;20029;-75
2023/12/06 03:49:40;;;;;;;76.78;34.40;;;-3.20;99.90;;;;;;5072130;28;20016;-75
2023/12/06 03:52:07;;;;;;;73.82;34.45;;;-3.10;99.90;;;;;;5070951;28;20382;-75
2023/12/06 03:54:33;;;;;;;77.60;34.63;;;-3.10;99.90;;;;;;5070875;28;20016;-79
2023/12/06 03:56:59;;;;;;;84.07;37.97;;;-3.10;99.90;;;;;;5071153;28;20355;-79
2023/12/06 03:59:25;;;;;;;88.93;42.65;;;-3.10;99.90;;;;;;5071889;28;20021;-75
2023/12/06 04:01:51;;;;;;;79.38;38.08;;;-3.00;99.90;;;;;;5070872;28;20489;-79
2023/12/06 04:04:16;;;;;;;82.93;38.53;;;-3.00;99.90;;;;;;5072048;28;20479;-75
2023/12/06 04:06:42;;;;;;;90.32;39.72;;;-3.00;99.90;;;;;;5070856;28;20044;-75
2023/12/06 04:09:10;;;;;;;89.40;38.22;;;-3.00;99.90;;;;;;5072097;28;20485;-79
2023/12/06 04:11:36;;;;;;;86.25;38.33;;;-3.00;99.90;;;;;;5072049;28;20048;-74
2023/12/06 04:14:03;;;;;;;76.50;35.72;;;-3.00;99.90;;;;;;5071971;28;20074;-74
2023/12/06 04:16:29;;;;;;;77.35;34.85;;;-3.00;99.90;;;;;;5071882;28;20021;-75
2023/12/06 04:18:55;;;;;;;66.40;31.75;;;-2.90;99.90;;;;;;5071771;28;20462;-79
2023/12/06 04:21:21;;;;;;;72.88;31.92;;;-3.00;99.90;;;;;;5074381;28;20029;-74
2023/12/06 04:23:48;;;;;;;61.90;29.08;;;-2.90;99.90;;;;;;5074015;28;20118;-78
2023/12/06 04:26:14;;;;;;;67.40;31.08;;;-2.90;99.90;;;;;;5075369;28;20175;-79
2023/12/06 04:28:39;;;;;;;58.97;29.80;;;-2.90;99.90;;;;;;5075525;28;20115;-74
2023/12/06 04:31:05;;;;;;;61.92;27.95;;;-2.90;99.90;;;;;;5075522;28;20517;-74
2023/12/06 04:33:31;;;;;;;54.05;27.23;;;-2.80;99.90;;;;;;5073862;28;20398;-79
2023/12/06 04:35:56;;;;;;;64.22;28.77;;;-2.80;99.90;;;;;;5075541;28;20052;-75
2023/12/06 04:38:23;;;;;;;54.22;27.08;;;-2.80;99.90;;;;;;5073886;28;20178;-79
2023/12/06 04:40:49;;;;;;;59.67;28.63;;;-2.80;99.90;;;;;;5075498;28;20412;-74
2023/12/06 04:43:16;;;;;;;53.22;26.75;;;-2.70;99.90;;;;;;5073866;28;20063;-75
2023/12/06 04:45:42;;;;;;;59.40;27.27;;;-2.70;99.90;;;;;;5075189;28;20028;-74
2023/12/06 04:48:08;;;;;;;52.53;26.00;;;-2.70;99.90;;;;;;5073689;28;20028;-75
2023/12/06 04:50:34;;;;;;;57.20;26.85;;;-2.70;99.90;;;;;;5075036;28;20021;-79
2023/12/06 04:52:59;;;;;;;53.60;26.75;;;-2.70;99.90;;;;;;5073638;28;20013;-79
2023/12/06 04:55:25;;;;;;;55.58;26.58;;;-2.60;99.90;;;;;;5075068;28;20026;-75
2023/12/06 04:57:51;;;;;;;50.42;25.27;;;-2.60;99.90;;;;;;5073375;28;20016;-79
2023/12/06 05:00:17;;;;;;;50.47;26.45;;;-2.60;99.90;;;;;;5067794;28;20032;-78
2023/12/06 05:02:43;;;;;;;54.80;25.90;;;-2.60;99.90;;;;;;5073511;28;20021;-79
2023/12/06 05:05:09;;;;;;;57.08;25.88;;;-2.60;99.90;;;;;;5074900;28;20063;-79
2023/12/06 05:07:35;;;;;;;59.95;28.75;;;-2.60;99.90;;;;;;5074615;28;20440;-79
2023/12/06 05:10:01;;;;;;;62.40;30.10;;;-2.60;99.90;;;;;;5079029;28;20095;-79
2023/12/06 05:12:26;;;;;;;62.50;33.72;;;-2.60;99.90;;;;;;5074169;28;20474;-79
2023/12/06 05:14:52;;;;;;;67.20;32.75;;;-2.60;99.90;;;;;;5073269;28;20032;-79
2023/12/06 05:17:18;;;;;;;59.70;31.63;;;-2.50;99.90;;;;;;5073061;28;20016;-79
2023/12/06 05:19:43;;;;;;;66.85;29.20;;;-2.50;99.90;;;;;;5074063;28;20025;-79
2023/12/06 05:22:09;;;;;;;64.80;30.02;;;-2.60;99.90;;;;;;5074333;28;20502;-79
2023/12/06 05:24:35;;;;;;;62.97;30.40;;;-2.60;99.90;;;;;;5073646;28;20028;-75
2023/12/06 05:27:00;;;;;;;60.78;33.30;;;-2.60;99.90;;;;;;5072485;28;20028;-75
2023/12/06 05:29:29;;;;;;;74.70;32.35;;;-2.70;99.90;;;;;;5073119;28;20021;-79
2023/12/06 05:31:54;;;;;;;65.35;32.65;;;-2.70;99.90;;;;;;5073048;28;20028;-79
2023/12/06 05:34:20;;;;;;;71.35;32.95;;;-2.70;99.90;;;;;;5073943;28;20040;-79
2023/12/06 05:36:45;;;;;;;70.57;33.28;;;-2.70;99.90;;;;;;5072484;28;20073;-79
2023/12/06 05:39:11;;;;;;;75.50;35.78;;;-2.80;99.90;;;;;;5072604;28;20028;-79
2023/12/06 05:41:37;;;;;;;84.47;38.97;;;-2.80;99.90;;;;;;5073095;28;20104;-79
2023/12/06 05:44:06;;;;;;;85.65;38.40;;;-2.80;99.90;;;;;;5074106;28;20470;-77
2023/12/06 05:46:32;;;;;;;86.50;39.08;;;-2.80;99.90;;;;;;5073384;28;20177;-77
2023/12/06 05:48:58;;;;;;;85.43;40.47;;;-2.90;99.90;;;;;;5073579;28;20111;-77
2023/12/06 05:51:24;;;;;;;86.22;38.67;;;-3.10;99.90;;;;;;5073216;28;20028;-78
2023/12/06 05:53:50;;;;;;;83.70;35.97;;;-3.10;99.90;;;;;;5071549;28;20405;-78
2023/12/06 05:56:16;;;;;;;83.15;36.30;;;-3.10;99.90;;;;;;5071993;28;20028;-78
2023/12/06 05:58:42;;;;;;;73.93;36.22;;;-3.20;99.90;;;;;;5072284;28;20022;-77
2023/12/06 06:01:08;;;;;;;77.60;35.78;;;-3.20;99.90;;;;;;5070163;28;20048;-78
2023/12/06 06:03:34;;;;;;;77.63;39.15;;;-3.20;99.90;;;;;;5072919;28;20113;-78
2023/12/06 06:06:07;;;;;;;73.35;36.58;;;-3.30;99.90;;;;;;5072895;28;20095;-78
2023/12/06 06:08:34;;;;;;;90.50;43.15;;;-3.30;99.90;;;;;;5072346;28;20033;-78
2023/12/06 06:11:01;;;;;;;105.75;46.50;;;-3.20;99.90;;;;;;5073294;28;20015;-78
2023/12/06 06:13:29;;;;;;;99.82;47.60;;;-3.30;99.90;;;;;;5071729;28;20028;-79
2023/12/06 06:15:55;;;;;;;111.95;50.38;;;-3.30;99.90;;;;;;5072950;28;20448;-79
2023/12/06 06:18:21;;;;;;;110.72;49.83;;;-3.30;99.90;;;;;;5071810;28;20016;-79
2023/12/06 06:20:47;;;;;;;115.43;51.33;;;-3.30;99.90;;;;;;5072707;28;20093;-79
2023/12/06 06:23:12;;;;;;;112.57;48.97;;;-3.30;99.90;;;;;;5067659;28;20020;-79
2023/12/06 06:25:38;;;;;;;121.57;53.22;;;-3.30;99.90;;;;;;5069844;28;20051;-79
2023/12/06 06:28:04;;;;;;;116.55;53.35;;;-3.30;99.90;;;;;;5073114;28;20032;-79
2023/12/06 06:30:30;;;;;;;115.65;52.00;;;-3.30;99.90;;;;;;5072290;28;20020;-79
2023/12/06 06:32:56;;;;;;;113.13;53.10;;;-3.20;99.90;;;;;;5072710;28;20076;-79
2023/12/06 06:35:22;;;;;;;90.22;43.33;;;-3.20;99.90;;;;;;5072114;28;20025;-79
2023/12/06 06:37:48;;;;;;;85.35;43.53;;;-3.20;99.90;;;;;;5081028;28;20488;-79
2023/12/06 06:40:14;;;;;;;88.75;42.88;;;-3.20;99.90;;;;;;5072883;28;20112;-75
2023/12/06 06:42:40;;;;;;;99.43;45.10;;;-3.10;99.90;;;;;;5071600;28;20021;-79
2023/12/06 06:45:08;;;;;;;90.75;41.00;;;-3.10;99.90;;;;;;5071376;28;20020;-79
2023/12/06 06:47:34;;;;;;;79.68;39.17;;;-3.10;99.90;;;;;;5072938;28;20122;-79
2023/12/06 06:50:00;;;;;;;81.90;37.53;;;-3.10;99.90;;;;;;5072828;28;20359;-75
2023/12/06 06:52:26;;;;;;;73.00;35.13;;;-3.10;99.90;;;;;;5070170;28;20166;-79
2023/12/06 06:54:51;;;;;;;80.72;36.80;;;-3.10;99.90;;;;;;5072004;28;20504;-76
2023/12/06 06:57:17;;;;;;;70.95;36.55;;;-3.00;99.90;;;;;;5071288;28;20025;-75
2023/12/06 06:59:43;;;;;;;80.75;35.30;;;-3.00;99.90;;;;;;5070945;28;20016;-79
2023/12/06 07:02:10;;;;;;;91.82;38.85;;;-3.00;99.90;;;;;;5072057;28;20479;-80
2023/12/06 07:04:36;;;;;;;83.70;36.80;;;-2.90;99.90;;;;;;5072349;28;20103;-76
2023/12/06 07:07:02;;;;;;;79.65;35.70;;;-2.90;99.90;;;;;;5070974;28;20036;-79
2023/12/06 07:09:28;;;;;;;82.15;36.88;;;-2.90;99.90;;;;;;5072404;28;20028;-75
2023/12/06 07:11:53;;;;;;;77.35;35.58;;;-2.90;99.90;;;;;;5072311;28;20021;-75
2023/12/06 07:14:20;;;;;;;79.70;35.65;;;-2.90;99.90;;;;;;5071281;28;20090;-75
2023/12/06 07:16:46;;;;;;;78.53;34.88;;;-2.80;99.90;;;;;;5070625;28;20021;-80
2023/12/06 07:19:12;;;;;;;82.60;37.80;;;-2.90;99.90;;;;;;5070017;28;20099;-79
2023/12/06 07:21:39;;;;;;;88.38;42.42;;;-2.80;99.90;;;;;;5070278;28;20100;-75
2023/12/06 07:24:06;;;;;;;97.97;44.33;;;-2.80;99.90;;;;;;5068918;28;20081;-75
2023/12/06 07:26:32;;;;;;;99.85;45.60;;;-2.70;99.90;;;;;;5069012;28;20055;-75
2023/12/06 07:28:58;;;;;;;88.38;43.25;;;-2.70;99.90;;;;;;5072123;28;20370;-79
2023/12/06 07:31:23;;;;;;;92.70;47.22;;;-2.70;99.90;;;;;;5072557;28;20020;-79
2023/12/06 07:33:50;;;;;;;90.45;43.80;;;-2.60;99.90;;;;;;5071595;28;20040;-79
2023/12/06 07:36:16;;;;;;;98.05;43.50;;;-2.60;99.90;;;;;;5070703;28;20486;-79
2023/12/06 07:38:42;;;;;;;100.82;44.47;;;-2.60;99.90;;;;;;5072495;28;20021;-79
2023/12/06 07:41:08;;;;;;;98.88;46.15;;;-2.50;99.90;;;;;;5071064;28;20017;-79
2023/12/06 07:43:33;;;;;;;93.05;45.67;;;-2.50;99.90;;;;;;5071086;28;20432;-79
2023/12/06 07:45:59;;;;;;;88.57;41.78;;;-2.40;99.90;;;;;;5072039;28;20100;-79
2023/12/06 07:48:25;;;;;;;90.90;42.78;;;-2.40;99.90;;;;;;5072133;28;20025;-79
2023/12/06 07:50:53;;;;;;;85.97;40.67;;;-2.30;99.90;;;;;;5072375;28;20438;-79
2023/12/06 07:53:19;;;;;;;74.55;37.00;;;-2.30;99.90;;;;;;5070599;28;20025;-79
2023/12/06 07:55:45;;;;;;;81.53;37.15;;;-2.30;99.90;;;;;;5063025;28;20024;-79
2023/12/06 07:58:11;;;;;;;81.90;40.92;;;-2.20;99.90;;;;;;5074837;28;20090;-79
2023/12/06 08:00:37;;;;;;;78.20;34.33;;;-2.10;99.90;;;;;;5074352;28;20478;-75
2023/12/06 08:03:03;;;;;;;80.95;34.20;;;-2.10;99.90;;;;;;5074547;28;20020;-75
2023/12/06 08:05:28;;;;;;;67.40;31.63;;;-2.10;99.90;;;;;;5074070;28;20020;-75
2023/12/06 08:07:54;;;;;;;76.30;34.45;;;-2.00;99.90;;;;;;5063359;28;20093;-78
2023/12/06 08:10:22;;;;;;;77.55;34.92;;;-2.00;99.90;;;;;;5075697;28;20100;-79
2023/12/06 08:12:49;;;;;;;74.55;32.50;;;-2.00;99.90;;;;;;5064262;28;20020;-79
2023/12/06 08:15:15;;;;;;;70.10;34.95;;;-1.90;99.90;;;;;;5075573;28;20024;-79
2023/12/06 08:17:41;;;;;;;68.95;34.25;;;-1.80;99.90;;;;;;5074324;28;20447;-75
2023/12/06 08:20:10;;;;;;;62.85;31.38;;;-1.80;99.90;;;;;;5075526;28;20069;-75
2023/12/06 08:22:36;;;;;;;73.90;33.13;;;-1.70;99.90;;;;;;5075337;28;20016;-75
2023/12/06 08:25:02;;;;;;;63.88;32.30;;;-1.70;99.90;;;;;;5073914;28;20082;-75
2023/12/06 08:27:29;;;;;;;64.70;32.03;;;-1.60;99.90;;;;;;5074232;28;20490;-79
2023/12/06 08:29:58;;;;;;;66.45;30.23;;;-1.50;99.90;;;;;;5073877;28;20021;-79
2023/12/06 08:32:24;;;;;;;59.63;29.90;;;-1.50;99.90;;;;;;5075283;28;20188;-75
2023/12/06 08:34:50;;;;;;;56.90;28.92;;;-1.40;99.90;;;;;;5075067;28;20103;-79
2023/12/06 08:37:16;;;;;;;53.95;28.25;;;-1.30;99.90;;;;;;5075482;28;20031;-79
2023/12/06 08:39:43;;;;;;;57.17;26.35;;;-1.30;99.90;;;;;;5075294;28;20020;-75
2023/12/06 08:42:09;;;;;;;48.58;26.67;;;-1.20;99.90;;;;;;5074129;28;20077;-79
2023/12/06 08:44:34;;;;;;;50.83;25.48;;;-1.10;99.90;;;;;;5075047;28;20028;-75
2023/12/06 08:47:02;;;;;;;53.28;24.38;;;-1.10;99.90;;;;;;5074004;28;20055;-75
2023/12/06 08:49:28;;;;;;;46.55;25.27;;;-1.00;99.90;;;;;;5075051;28;20871;-79
2023/12/06 08:51:53;;;;;;;50.67;25.40;;;-1.00;99.90;;;;;;5073971;28;20017;-75
2023/12/06 08:54:19;;;;;;;51.40;27.05;;;-0.90;99.90;;;;;;5074174;28;20035;-75
2023/12/06 08:56:44;;;;;;;58.80;27.15;;;-0.90;99.90;;;;;;5075088;28;20110;-75
2023/12/06 08:59:10;;;;;;;54.58;28.60;;;-0.80;99.90;;;;;;5074892;28;20064;-79
2023/12/06 09:01:36;;;;;;;70.13;32.47;;;-0.70;99.90;;;;;;5074921;28;20059;-75
2023/12/06 09:04:01;;;;;;;90.07;39.05;;;-0.60;99.90;;;;;;5075105;28;20067;-75
2023/12/06 09:06:27;;;;;;;105.63;43.58;;;-0.50;99.90;;;;;;5074673;28;20036;-79
2023/12/06 09:08:53;;;;;;;81.47;37.15;;;-0.40;99.90;;;;;;5074333;28;20036;-79
2023/12/06 09:11:21;;;;;;;83.63;35.97;;;-0.30;99.90;;;;;;5074766;28;20025;-78
2023/12/06 09:13:48;;;;;;;79.65;34.83;;;-0.30;99.90;;;;;;5074831;28;20426;-79
2023/12/06 09:16:14;;;;;;;66.80;34.20;;;-0.10;99.90;;;;;;5073260;28;20065;-75
2023/12/06 09:18:40;;;;;;;77.50;34.78;;;-0.10;99.90;;;;;;5073882;28;20386;-75
2023/12/06 09:21:05;;;;;;;73.93;36.53;;;0.00;99.90;;;;;;5074592;28;20017;-75
2023/12/06 09:23:31;;;;;;;84.88;39.63;;;0.00;99.90;;;;;;5074174;28;20066;-75
2023/12/06 09:25:59;;;;;;;85.88;40.50;;;0.10;99.90;;;;;;5062383;28;20025;-75
2023/12/06 09:28:25;;;;;;;80.05;38.58;;;0.20;99.90;;;;;;5073008;28;20021;-75
2023/12/06 09:30:51;;;;;;;71.97;35.78;;;0.20;99.90;;;;;;5073337;28;20021;-79
2023/12/06 09:33:18;;;;;;;61.22;32.83;;;0.20;99.90;;;;;;5073778;28;20109;-79
2023/12/06 09:35:44;;;;;;;64.80;31.30;;;0.30;99.90;;;;;;5072798;28;20043;-79
2023/12/06 09:38:09;;;;;;;60.80;30.75;;;0.30;99.90;;;;;;5073725;28;20048;-75
2023/12/06 09:40:35;;;;;;;57.80;28.08;;;0.30;99.90;;;;;;5062024;28;20450;-79
2023/12/06 09:43:04;;;;;;;56.42;26.90;;;0.50;99.90;;;;;;5072755;28;20020;-75
2023/12/06 09:45:30;;;;;;;58.67;28.23;;;0.40;99.90;;;;;;5061089;28;20390;-76
2023/12/06 09:47:57;;;;;;;61.72;32.13;;;0.40;99.90;;;;;;5072450;28;20055;-77
2023/12/06 09:50:26;;;;;;;54.10;29.05;;;0.40;99.90;;;;;;5073847;28;20027;-79
2023/12/06 09:52:53;;;;;;;62.08;32.40;;;0.40;99.90;;;;;;5073954;28;20024;-75
2023/12/06 09:55:23;;;;;;;67.45;32.38;;;0.40;99.90;;;;;;5072655;28;20027;-79
2023/12/06 09:57:56;;;;;;;74.25;33.30;;;0.40;99.90;;;;;;5072147;28;20107;-79
2023/12/06 10:00:23;;;;;;;64.13;31.25;;;0.50;99.90;;;;;;5072583;28;20017;-79
2023/12/06 10:02:57;;;;;;;66.63;31.73;;;0.50;99.90;;;;;;5073309;28;20104;-79
2023/12/06 10:05:24;;;;;;;58.33;29.25;;;0.50;99.90;;;;;;5072547;28;20016;-79
2023/12/06 10:07:50;;;;;;;58.72;30.23;;;0.50;99.90;;;;;;5072107;28;20033;-75
2023/12/06 10:10:20;;;;;;;64.50;31.45;;;0.40;99.90;;;;;;5071932;28;20119;-79
2023/12/06 10:12:52;;;;;;;59.05;28.55;;;0.40;99.90;;;;;;5072597;28;20025;-79
2023/12/06 10:15:18;;;;;;;63.03;30.85;;;0.30;99.90;;;;;;5072542;28;20025;-79
2023/12/06 10:17:45;;;;;;;66.88;30.42;;;0.20;99.90;;;;;;5070684;28;20017;-79
2023/12/06 10:20:11;;;;;;;65.93;31.85;;;0.20;99.90;;;;;;5070756;28;20103;-79
2023/12/06 10:22:36;;;;;;;66.65;33.45;;;0.10;99.90;;;;;;5072366;28;20588;-80
2023/12/06 10:25:05;;;;;;;75.63;35.72;;;0.00;99.90;;;;;;5070774;28;20147;-79
2023/12/06 10:27:31;;;;;;;72.35;34.60;;;-0.10;99.90;;;;;;5072366;28;20033;-75
2023/12/06 10:29:56;;;;;;;81.05;39.65;;;-0.20;99.90;;;;;;5070907;28;20386;-75
2023/12/06 10:32:22;;;;;;;74.68;36.83;;;-0.20;99.90;;;;;;5071207;28;20517;-79
2023/12/06 10:34:49;;;;;;;73.40;37.88;;;-0.20;99.90;;;;;;5072248;28;20028;-79
2023/12/06 10:37:19;;;;;;;69.70;36.53;;;-0.30;99.90;;;;;;5071170;28;20025;-79
2023/12/06 10:39:48;;;;;;;62.53;31.85;;;-0.30;99.90;;;;;;5071811;28;20059;-79
2023/12/06 10:42:19;;;;;;;55.65;27.55;;;-0.40;99.90;;;;;;5071740;28;20016;-79
2023/12/06 10:44:44;;;;;;;57.40;26.48;;;-0.40;99.90;;;;;;5071698;28;20021;-79
2023/12/06 10:47:12;;;;;;;54.55;27.13;;;-0.60;99.90;;;;;;5072375;28;20043;-79
2023/12/06 10:49:38;;;;;;;57.35;27.73;;;-0.70;99.90;;;;;;5070732;28;20023;-79
2023/12/06 10:52:05;;;;;;;59.45;28.10;;;-0.70;99.90;;;;;;5072845;28;20066;-79
2023/12/06 10:54:30;;;;;;;63.50;30.38;;;-0.80;99.90;;;;;;5070594;28;20033;-79
2023/12/06 10:56:56;;;;;;;57.80;28.40;;;-0.80;99.90;;;;;;5070988;28;20385;-79
2023/12/06 10:59:29;;;;;;;52.45;28.40;;;-0.90;99.90;;;;;;5072553;28;20557;-79
2023/12/06 11:01:57;;;;;;;64.80;31.20;;;-0.90;99.90;;;;;;5069938;28;20512;-75
2023/12/06 11:04:26;;;;;;;64.57;30.70;;;-0.90;99.90;;;;;;5069538;28;20103;-75
2023/12/06 11:07:15;;;;;;;70.10;31.75;;;-0.90;99.90;;;;;;5070666;28;20048;-75
2023/12/06 11:09:47;;;;;;;64.82;32.72;;;-0.90;99.90;;;;;;5073868;28;20078;-75
2023/12/06 11:12:43;;;;;;;71.10;32.90;;;-0.90;99.90;;;;;;5069398;28;20024;-79
2023/12/06 11:15:33;;;;;;;75.43;33.83;;;-0.90;99.90;;;;;;5063720;28;20044;-75
2023/12/06 11:18:23;;;;;;;66.10;33.60;;;-0.90;99.90;;;;;;5069254;28;20020;-79
2023/12/06 11:20:48;;;;;;;70.03;35.28;;;-1.00;99.90;;;;;;5070275;28;20016;-75
2023/12/06 11:23:17;;;;;;;65.43;33.30;;;-1.00;99.90;;;;;;5071281;28;20025;-75
2023/12/06 11:25:44;;;;;;;70.55;33.47;;;-1.00;99.90;;;;;;5072236;28;20017;-79
2023/12/06 11:28:16;;;;;;;66.13;34.65;;;-1.00;99.90;;;;;;5072558;28;20085;-75
2023/12/06 11:30:55;;;;;;;69.68;33.70;;;-1.00;99.90;;;;;;5074047;28;20016;-79
2023/12/06 11:33:21;;;;;;;62.95;31.08;;;-1.00;99.90;;;;;;5076838;28;20052;-79
2023/12/06 11:35:51;;;;;;;60.92;28.58;;;-1.10;99.90;;;;;;5075745;28;20027;-79
2023/12/06 11:38:18;;;;;;;62.47;29.83;;;-1.20;99.90;;;;;;5075131;28;20032;-74
2023/12/06 11:40:51;;;;;;;56.50;27.08;;;-1.20;99.90;;;;;;5076798;28;20091;-75
2023/12/06 11:43:19;;;;;;;55.90;29.60;;;-1.20;99.90;;;;;;5074660;28;20486;-75
2023/12/06 11:45:46;;;;;;;62.35;28.77;;;-1.30;99.90;;;;;;5075387;28;20031;-79
2023/12/06 11:48:15;;;;;;;59.92;29.65;;;-1.30;99.90;;;;;;5076144;28;20035;-79
2023/12/06 11:50:46;;;;;;;65.03;30.50;;;-1.30;99.90;;;;;;5076418;28;20385;-79
2023/12/06 11:53:12;;;;;;;61.38;31.25;;;-1.30;99.90;;;;;;5076380;28;20477;-75
2023/12/06 11:55:42;;;;;;;65.63;32.05;;;-1.30;99.90;;;;;;5074945;28;20108;-75
2023/12/06 11:58:12;;;;;;;66.38;29.75;;;-1.30;99.90;;;;;;5074888;28;20020;-79
2023/12/06 12:00:49;;;;;;;65.10;32.90;;;-1.30;99.90;;;;;;5074948;28;20070;-79
2023/12/06 12:03:15;;;;;;;65.95;31.48;;;-1.30;99.90;;;;;;5066405;28;20020;-79
2023/12/06 12:05:45;;;;;;;66.78;30.13;;;-1.20;99.90;;;;;;5075950;28;20067;-79
2023/12/06 12:08:11;;;;;;;69.03;30.55;;;-1.20;99.90;;;;;;5076146;28;20116;-75
2023/12/06 12:10:37;;;;;;;68.18;32.65;;;-1.20;99.90;;;;;;5073165;28;20387;-75
2023/12/06 12:13:02;;;;;;;67.13;33.65;;;-1.10;99.90;;;;;;5066642;28;20099;-79
2023/12/06 12:15:30;;;;;;;59.65;29.15;;;-1.10;99.90;;;;;;5074229;28;20028;-79
2023/12/06 12:17:59;;;;;;;64.50;31.50;;;-1.10;99.90;;;;;;5074396;28;20024;-75
2023/12/06 12:20:25;;;;;;;59.97;28.95;;;-1.10;99.90;;;;;;5074622;28;20040;-75
2023/12/06 12:22:52;;;;;;;68.28;31.30;;;-1.00;99.90;;;;;;5074213;28;20012;-75